createdAt,value
2023-04-07T00:02:09.943Z,98881.72
2023-04-07T00:04:37.661Z,98879.84
2023-04-07T00:07:05.196Z,98877.75
2023-04-07T00:09:32.756Z,98870.97
2023-04-07T00:12:02.565Z,98866.94
2023-04-07T00:14:29.963Z,98866.09
2023-04-07T00:16:57.228Z,98866.00
2023-04-07T00:19:24.404Z,98860.44
2023-04-07T00:21:51.611Z,98856.34
2023-04-07T00:24:27.486Z,98858.09
2023-04-07T00:27:02.075Z,98857.34
2023-04-07T00:29:29.283Z,98851.69
2023-04-07T00:31:56.478Z,98850.06
2023-04-07T00:34:23.974Z,98847.91
2023-04-07T00:36:53.987Z,98846.03
2023-04-07T00:39:22.010Z,98839.63
2023-04-07T00:41:50.046Z,98840.44
2023-04-07T00:44:17.255Z,98845.06
2023-04-07T00:46:44.889Z,98842.41
2023-04-07T00:49:13.495Z,98838.69
2023-04-07T00:51:41.371Z,98824.09
2023-04-07T00:54:11.128Z,98826.38
2023-04-07T00:56:38.684Z,98822.25
2023-04-07T00:59:06.510Z,98817.91
2023-04-07T01:01:50.472Z,98811.19
2023-04-07T01:04:45.296Z,98812.44
2023-04-07T01:07:47.271Z,98796.22
2023-04-07T01:10:28.587Z,98805.13
2023-04-07T01:13:08.563Z,98802.72
2023-04-07T01:15:38.851Z,98801.16
2023-04-07T01:18:18.262Z,98787.31
2023-04-07T01:20:52.901Z,98793.13
2023-04-07T01:24:00.561Z,98780.94
2023-04-07T01:26:33.776Z,98780.31
2023-04-07T01:29:22.679Z,98776.47
2023-04-07T01:31:51.968Z,98781.94
2023-04-07T01:34:21.397Z,98775.31
2023-04-07T01:36:52.573Z,98772.41
2023-04-07T01:39:22.735Z,98772.25
2023-04-07T01:41:53.120Z,98772.47
2023-04-07T01:44:21.838Z,98784.44
2023-04-07T01:46:53.253Z,98769.13
2023-04-07T01:49:23.753Z,98767.91
2023-04-07T01:51:52.353Z,98756.66
2023-04-07T01:54:25.560Z,98761.25
2023-04-07T01:56:53.997Z,98760.44
2023-04-07T01:59:22.112Z,98764.88
2023-04-07T02:01:49.690Z,98759.47
2023-04-07T02:04:30.873Z,98760.91
2023-04-07T02:07:16.889Z,98760.69
2023-04-07T02:09:58.271Z,98756.56
2023-04-07T02:12:30.267Z,98751.00
2023-04-07T02:15:11.715Z,98753.09
2023-04-07T02:17:47.397Z,98749.47
2023-04-07T02:20:16.272Z,98751.50
2023-04-07T02:22:47.167Z,98746.78
2023-04-07T02:25:31.326Z,98743.06
2023-04-07T02:28:01.379Z,98729.81
2023-04-07T02:30:29.471Z,98742.09
2023-04-07T02:32:57.088Z,98742.22
2023-04-07T02:35:24.693Z,98739.28
2023-04-07T02:37:52.275Z,98743.28
2023-04-07T02:40:19.672Z,98736.69
2023-04-07T02:42:47.632Z,98732.19
2023-04-07T02:45:15.958Z,98723.41
2023-04-07T02:47:43.320Z,98726.16
2023-04-07T02:50:11.842Z,98716.97
2023-04-07T02:52:39.477Z,98721.53
2023-04-07T02:55:11.974Z,98713.81
2023-04-07T02:57:39.949Z,98714.28
2023-04-07T03:00:15.784Z,98714.75
2023-04-07T03:02:58.723Z,98716.53
2023-04-07T03:05:28.962Z,98706.22
2023-04-07T03:07:57.633Z,98713.25
2023-04-07T03:10:24.962Z,98704.06
2023-04-07T03:12:52.523Z,98705.03
2023-04-07T03:15:19.672Z,98699.88
2023-04-07T03:17:48.446Z,98696.81
2023-04-07T03:20:17.677Z,98706.44
2023-04-07T03:22:47.198Z,98702.38
2023-04-07T03:25:21.787Z,98697.16
2023-04-07T03:27:50.287Z,98692.31
2023-04-07T03:30:18.390Z,98688.78
2023-04-07T03:32:46.870Z,98681.34
2023-04-07T03:35:14.767Z,98696.16
2023-04-07T03:37:42.058Z,98686.97
2023-04-07T03:40:15.208Z,98690.34
2023-04-07T03:42:43.456Z,98687.00
2023-04-07T03:45:12.665Z,98684.31
2023-04-07T03:47:47.229Z,98679.22
2023-04-07T03:50:16.341Z,98685.41
2023-04-07T03:53:10.912Z,98677.28
2023-04-07T03:55:40.133Z,98676.84
2023-04-07T03:58:17.162Z,98680.78
2023-04-07T04:00:47.690Z,98680.31
2023-04-07T04:03:15.058Z,98679.91
2023-04-07T04:05:52.256Z,98673.88
2023-04-07T04:08:27.546Z,98680.75
2023-04-07T04:10:54.880Z,98675.16
2023-04-07T04:13:24.320Z,98674.97
2023-04-07T04:15:52.468Z,98663.88
2023-04-07T04:18:19.921Z,98664.41
2023-04-07T04:20:48.810Z,98669.59
2023-04-07T04:23:16.676Z,98668.97
2023-04-07T04:25:45.157Z,98665.34
2023-04-07T04:28:13.494Z,98669.50
2023-04-07T04:30:41.891Z,98662.16
2023-04-07T04:33:09.805Z,98664.75
2023-04-07T04:35:54.467Z,98665.44
2023-04-07T04:38:22.656Z,98670.66
2023-04-07T04:41:06.237Z,98660.00
2023-04-07T04:43:34.445Z,98660.91
2023-04-07T04:46:04.156Z,98658.56
2023-04-07T04:48:36.421Z,98654.28
2023-04-07T04:51:07.681Z,98662.78
2023-04-07T04:53:36.355Z,98670.31
2023-04-07T04:56:06.034Z,98665.00
2023-04-07T04:58:42.210Z,98666.53
2023-04-07T05:01:12.829Z,98669.50
2023-04-07T05:03:46.727Z,98655.19
2023-04-07T05:06:25.617Z,98663.94
2023-04-07T05:08:53.898Z,98664.22
2023-04-07T05:11:25.768Z,98661.16
2023-04-07T05:13:55.636Z,98665.47
2023-04-07T05:16:24.428Z,98662.69
2023-04-07T05:18:52.815Z,98670.31
2023-04-07T05:21:22.130Z,98668.78
2023-04-07T05:23:53.454Z,98667.28
2023-04-07T05:26:22.794Z,98660.38
2023-04-07T05:28:51.605Z,98661.06
2023-04-07T05:31:22.187Z,98668.50
2023-04-07T05:33:53.203Z,98665.13
2023-04-07T05:36:24.539Z,98668.25
2023-04-07T05:38:55.738Z,98678.09
2023-04-07T05:41:23.165Z,98667.63
2023-04-07T05:43:51.204Z,98674.69
2023-04-07T05:46:19.054Z,98670.00
2023-04-07T05:48:56.691Z,98669.06
2023-04-07T05:51:26.783Z,98663.69
2023-04-07T05:53:56.273Z,98661.78
2023-04-07T05:56:26.251Z,98669.81
2023-04-07T05:58:53.754Z,98669.31
2023-04-07T06:01:21.382Z,98671.25
2023-04-07T06:03:54.582Z,98663.91
2023-04-07T06:06:26.904Z,98669.81
2023-04-07T06:08:54.832Z,98671.22
2023-04-07T06:11:23.978Z,98670.47
2023-04-07T06:13:51.461Z,98680.50
2023-04-07T06:16:19.817Z,98673.34
2023-04-07T06:18:47.714Z,98682.88
2023-04-07T06:21:15.753Z,98684.03
2023-04-07T06:23:43.186Z,98682.53
2023-04-07T06:26:13.584Z,98683.28
2023-04-07T06:28:44.814Z,98682.88
2023-04-07T06:31:12.392Z,98694.13
2023-04-07T06:33:39.527Z,98670.63
2023-04-07T06:36:07.460Z,98681.69
2023-04-07T06:38:36.730Z,98673.59
2023-04-07T06:41:04.125Z,98675.97
2023-04-07T06:43:31.885Z,98679.91
2023-04-07T06:46:04.517Z,98677.41
2023-04-07T06:48:31.860Z,98679.22
2023-04-07T06:50:59.389Z,98674.56
2023-04-07T06:53:26.811Z,98677.38
2023-04-07T06:56:11.594Z,98672.56
2023-04-07T06:58:39.857Z,98680.03
2023-04-07T07:01:07.516Z,98677.22
2023-04-07T07:03:34.871Z,98676.53
2023-04-07T07:06:03.131Z,98676.19
2023-04-07T07:08:30.753Z,98671.63
2023-04-07T07:10:58.408Z,98667.69
2023-04-07T07:13:26.922Z,98665.22
2023-04-07T07:15:54.707Z,98663.03
2023-04-07T07:18:22.204Z,98665.28
2023-04-07T07:20:50.816Z,98664.34
2023-04-07T07:23:18.240Z,98670.59
2023-04-07T07:25:45.720Z,98668.38
2023-04-07T07:28:12.975Z,98667.00
2023-04-07T07:30:41.653Z,98670.50
2023-04-07T07:33:08.871Z,98673.56
2023-04-07T07:35:37.956Z,98678.69
2023-04-07T07:38:05.342Z,98673.84
2023-04-07T07:40:33.435Z,98672.59
2023-04-07T07:43:01.340Z,98678.53
2023-04-07T07:45:28.507Z,98681.50
2023-04-07T07:47:55.972Z,98685.00
2023-04-07T07:50:23.945Z,98685.72
2023-04-07T07:52:51.298Z,98689.41
2023-04-07T07:55:26.641Z,98683.03
2023-04-07T07:57:53.920Z,98695.66
2023-04-07T08:00:23.945Z,98698.47
2023-04-07T08:02:51.338Z,98698.00
2023-04-07T08:05:19.102Z,98696.00
2023-04-07T08:07:47.021Z,98692.78
2023-04-07T08:10:15.552Z,98691.28
2023-04-07T08:12:42.755Z,98691.97
2023-04-07T08:15:10.454Z,98689.81
2023-04-07T08:17:38.548Z,98682.78
2023-04-07T08:20:07.927Z,98687.69
2023-04-07T08:22:35.235Z,98688.50
2023-04-07T08:25:03.803Z,98689.91
2023-04-07T08:27:31.045Z,98696.72
2023-04-07T08:30:08.905Z,98701.63
2023-04-07T08:32:40.006Z,98700.03
2023-04-07T08:35:08.955Z,98701.47
2023-04-07T08:37:38.194Z,98695.50
2023-04-07T08:40:07.009Z,98691.72
2023-04-07T08:42:41.575Z,98695.69
2023-04-07T08:45:10.104Z,98699.28
2023-04-07T08:47:40.722Z,98695.09
2023-04-07T08:50:14.364Z,98693.56
2023-04-07T08:52:57.583Z,98698.28
2023-04-07T08:55:27.987Z,98697.16
2023-04-07T08:57:56.612Z,98697.00
2023-04-07T09:00:24.501Z,98686.84
2023-04-07T09:02:52.751Z,98694.16
2023-04-07T09:05:45.641Z,98695.84
2023-04-07T09:08:13.174Z,98699.91
2023-04-07T09:10:40.548Z,98696.13
2023-04-07T09:13:07.762Z,98697.13
2023-04-07T09:15:38.015Z,98706.13
2023-04-07T09:18:06.425Z,98695.50
2023-04-07T09:21:05.482Z,98704.13
2023-04-07T09:23:39.544Z,98695.25
2023-04-07T09:26:28.365Z,98693.50
2023-04-07T09:29:02.726Z,98711.34
2023-04-07T09:31:52.004Z,98694.31
2023-04-07T09:34:36.122Z,98702.31
2023-04-07T09:37:05.796Z,98696.38
2023-04-07T09:39:33.265Z,98686.81
2023-04-07T09:42:07.871Z,98695.00
2023-04-07T09:44:43.619Z,98685.00
2023-04-07T09:47:11.373Z,98690.84
2023-04-07T09:49:54.686Z,98693.09
2023-04-07T09:52:52.739Z,98683.59
2023-04-07T09:55:28.008Z,98684.44
2023-04-07T09:57:56.002Z,98686.81
2023-04-07T10:00:25.066Z,98683.81
2023-04-07T10:02:53.403Z,98687.22
2023-04-07T10:05:21.658Z,98678.81
2023-04-07T10:07:49.279Z,98679.16
2023-04-07T10:10:17.321Z,98676.75
2023-04-07T10:12:46.216Z,98677.53
2023-04-07T10:15:15.906Z,98677.44
2023-04-07T10:17:51.718Z,98671.19
2023-04-07T10:20:21.454Z,98669.28
2023-04-07T10:22:53.930Z,98669.94
2023-04-07T10:25:26.255Z,98679.50
2023-04-07T10:28:05.117Z,98670.28
2023-04-07T10:30:34.285Z,98672.31
2023-04-07T10:33:02.342Z,98675.56
2023-04-07T10:36:07.846Z,98679.34
2023-04-07T10:38:35.505Z,98675.41
2023-04-07T10:41:41.940Z,98682.72
2023-04-07T10:44:39.093Z,98677.19
2023-04-07T10:47:07.540Z,98683.06
2023-04-07T10:49:36.787Z,98677.59
2023-04-07T10:52:13.210Z,98691.13
2023-04-07T10:57:18.036Z,98682.25
2023-04-07T11:00:10.510Z,98678.41
2023-04-07T11:02:41.583Z,98684.19
2023-04-07T11:05:22.999Z,98676.28
2023-04-07T11:07:55.515Z,98678.09
2023-04-07T11:10:23.505Z,98676.38
2023-04-07T11:13:09.692Z,98679.56
2023-04-07T11:15:40.404Z,98671.75
2023-04-07T11:18:21.253Z,98671.53
2023-04-07T11:21:00.328Z,98670.78
2023-04-07T11:23:28.472Z,98665.00
2023-04-07T11:26:03.692Z,98668.47
2023-04-07T11:28:31.483Z,98667.13
2023-04-07T11:31:00.056Z,98671.97
2023-04-07T11:33:31.734Z,98676.53
2023-04-07T11:36:02.927Z,98668.72
2023-04-07T11:38:38.261Z,98668.53
2023-04-07T11:41:15.483Z,98670.53
2023-04-07T11:43:42.962Z,98677.81
2023-04-07T11:46:18.962Z,98673.38
2023-04-07T11:48:47.436Z,98675.31
2023-04-07T11:51:27.994Z,98684.59
2023-04-07T11:53:56.742Z,98681.63
2023-04-07T11:56:24.281Z,98668.91
2023-04-07T11:58:55.079Z,98671.38
2023-04-07T12:01:24.805Z,98681.03
2023-04-07T12:04:04.424Z,98682.88
2023-04-07T12:06:41.909Z,98678.38
2023-04-07T12:09:30.525Z,98675.41
2023-04-07T12:11:59.055Z,98685.41
2023-04-07T12:14:27.908Z,98687.91
2023-04-07T12:16:57.775Z,98685.81
2023-04-07T12:19:28.240Z,98691.88
2023-04-07T12:21:57.033Z,98683.31
2023-04-07T12:24:24.616Z,98693.09
2023-04-07T12:26:52.104Z,98689.63
2023-04-07T12:29:20.416Z,98686.09
2023-04-07T12:31:50.663Z,98700.81
2023-04-07T12:34:19.783Z,98703.94
2023-04-07T12:36:47.514Z,98709.22
2023-04-07T12:39:16.634Z,98721.56
2023-04-07T12:41:45.874Z,98715.03
2023-04-07T12:44:13.193Z,98716.81
2023-04-07T12:46:40.743Z,98721.09
2023-04-07T12:49:09.961Z,98724.13
2023-04-07T12:51:39.999Z,98716.19
2023-04-07T12:54:07.609Z,98725.75
2023-04-07T12:56:35.423Z,98724.59
2023-04-07T12:59:02.982Z,98720.00
2023-04-07T13:01:30.510Z,98715.31
2023-04-07T13:03:58.387Z,98720.41
2023-04-07T13:06:26.793Z,98716.44
2023-04-07T13:08:54.289Z,98707.47
2023-04-07T13:11:21.980Z,98721.63
2023-04-07T13:13:49.328Z,98720.72
2023-04-07T13:16:16.623Z,98718.38
2023-04-07T13:18:43.919Z,98716.91
2023-04-07T13:21:42.586Z,98731.09
2023-04-07T13:23:58.881Z,98725.41
2023-04-07T13:26:26.643Z,98721.75
2023-04-07T13:28:54.020Z,98723.03
2023-04-07T13:31:22.092Z,98720.91
2023-04-07T13:33:49.947Z,98711.56
2023-04-07T13:36:17.642Z,98714.06
2023-04-07T13:38:45.290Z,98707.16
2023-04-07T13:41:12.600Z,98701.00
2023-04-07T13:43:39.820Z,98711.50
2023-04-07T13:46:17.214Z,98714.00
2023-04-07T13:48:57.233Z,98706.59
2023-04-07T13:51:24.982Z,98702.78
2023-04-07T13:53:52.396Z,98707.31
2023-04-07T13:56:20.231Z,98707.53
2023-04-07T13:58:47.992Z,98713.47
2023-04-07T14:01:15.716Z,98703.47
2023-04-07T14:03:43.378Z,98708.53
2023-04-07T14:06:18.446Z,98697.91
2023-04-07T14:08:46.220Z,98703.22
2023-04-07T14:11:18.836Z,98706.94
2023-04-07T14:13:46.873Z,98694.94
2023-04-07T14:16:14.673Z,98699.41
2023-04-07T14:18:42.259Z,98700.81
2023-04-07T14:21:10.101Z,98700.72
2023-04-07T14:23:38.150Z,98703.44
2023-04-07T14:26:05.412Z,98703.34
2023-04-07T14:28:32.555Z,98693.81
2023-04-07T14:30:59.931Z,98702.25
2023-04-07T14:33:27.380Z,98702.53
2023-04-07T14:35:55.465Z,98708.41
2023-04-07T14:38:25.583Z,98710.63
2023-04-07T14:40:53.011Z,98714.66
2023-04-07T14:43:20.215Z,98707.97
2023-04-07T14:45:52.165Z,98707.16
2023-04-07T14:48:19.448Z,98703.38
2023-04-07T14:50:47.748Z,98704.66
2023-04-07T14:53:17.250Z,98700.19
2023-04-07T14:55:44.923Z,98708.69
2023-04-07T14:58:18.175Z,98700.72
2023-04-07T15:00:45.530Z,98713.34
2023-04-07T15:03:12.937Z,98704.50
2023-04-07T15:05:40.672Z,98704.13
2023-04-07T15:08:08.055Z,98708.09
2023-04-07T15:10:38.550Z,98702.06
2023-04-07T15:13:06.135Z,98717.88
2023-04-07T15:15:33.430Z,98720.38
2023-04-07T15:18:00.573Z,98709.44
2023-04-07T15:20:28.708Z,98711.91
2023-04-07T15:22:57.710Z,98709.66
2023-04-07T15:25:27.359Z,98714.50
2023-04-07T15:27:54.714Z,98711.59
2023-04-07T15:30:22.320Z,98705.84
2023-04-07T15:33:04.258Z,98715.13
2023-04-07T15:35:32.061Z,98709.41
2023-04-07T15:37:59.840Z,98706.91
2023-04-07T15:40:27.155Z,98710.94
2023-04-07T15:42:54.461Z,98720.06
2023-04-07T15:45:22.001Z,98716.91
2023-04-07T15:47:49.227Z,98715.22
2023-04-07T15:50:17.426Z,98719.94
2023-04-07T15:52:45.054Z,98720.50
2023-04-07T15:55:12.312Z,98723.63
2023-04-07T15:57:39.768Z,98732.66
2023-04-07T16:00:08.391Z,98732.44
2023-04-07T16:02:35.763Z,98726.28
2023-04-07T16:05:10.348Z,98733.94
2023-04-07T16:07:38.785Z,98734.50
2023-04-07T16:10:08.541Z,98741.53
2023-04-07T16:12:36.803Z,98738.16
2023-04-07T16:15:04.970Z,98743.78
2023-04-07T16:17:32.202Z,98742.97
2023-04-07T16:20:00.237Z,98742.66
2023-04-07T16:22:27.600Z,98744.88
2023-04-07T16:24:54.865Z,98747.75
2023-04-07T16:27:21.969Z,98745.44
2023-04-07T16:29:49.092Z,98746.59
2023-04-07T16:32:16.363Z,98745.75
2023-04-07T16:34:44.121Z,98747.97
2023-04-07T16:37:12.719Z,98750.81
2023-04-07T16:39:39.902Z,98748.59
2023-04-07T16:42:07.082Z,98758.41
2023-04-07T16:44:35.198Z,98753.38
2023-04-07T16:47:03.415Z,98752.25
2023-04-07T16:49:31.691Z,98758.94
2023-04-07T16:51:59.057Z,98758.69
2023-04-07T16:54:26.168Z,98764.03
2023-04-07T16:56:54.104Z,98767.94
2023-04-07T16:59:21.846Z,98764.84
2023-04-07T17:01:49.108Z,98776.59
2023-04-07T17:04:17.149Z,98777.72
2023-04-07T17:06:45.107Z,98775.22
2023-04-07T17:09:16.125Z,98777.44
2023-04-07T17:11:43.307Z,98786.94
2023-04-07T17:14:10.485Z,98788.06
2023-04-07T17:16:37.726Z,98793.09
2023-04-07T17:19:04.974Z,98784.66
2023-04-07T17:21:32.591Z,98793.00
2023-04-07T17:24:00.148Z,98800.53
2023-04-07T17:26:27.381Z,98802.75
2023-04-07T17:28:54.566Z,98799.38
2023-04-07T17:31:21.922Z,98808.22
2023-04-07T17:33:49.221Z,98810.59
2023-04-07T17:36:19.889Z,98810.28
2023-04-07T17:38:47.456Z,98810.28
2023-04-07T17:41:14.861Z,98817.31
2023-04-07T17:43:41.962Z,98821.81
2023-04-07T17:46:10.363Z,98823.25
2023-04-07T17:48:37.744Z,98830.00
2023-04-07T17:51:05.224Z,98827.81
2023-04-07T17:53:32.985Z,98828.09
2023-04-07T17:56:01.029Z,98834.47
2023-04-07T17:58:28.434Z,98838.34
2023-04-07T18:00:55.623Z,98845.59
2023-04-07T18:03:24.389Z,98845.03
2023-04-07T18:05:52.766Z,98850.81
2023-04-07T18:08:21.241Z,98845.13
2023-04-07T18:10:48.618Z,98846.06
2023-04-07T18:13:16.062Z,98857.78
2023-04-07T18:15:43.537Z,98854.75
2023-04-07T18:18:10.761Z,98866.53
2023-04-07T18:20:39.919Z,98862.53
2023-04-07T18:23:08.246Z,98870.13
2023-04-07T18:25:35.653Z,98879.00
2023-04-07T18:28:04.290Z,98879.16
2023-04-07T18:30:31.725Z,98877.78
2023-04-07T18:32:58.986Z,98888.44
2023-04-07T18:35:28.804Z,98900.56
2023-04-07T18:37:57.045Z,98900.44
2023-04-07T18:40:27.654Z,98903.50
2023-04-07T18:42:55.461Z,98908.88
2023-04-07T18:45:22.626Z,98898.97
2023-04-07T18:47:50.718Z,98903.81
2023-04-07T18:50:19.132Z,98912.22
2023-04-07T18:52:46.581Z,98919.66
2023-04-07T18:55:13.969Z,98919.44
2023-04-07T18:57:41.371Z,98916.34
2023-04-07T19:00:10.003Z,98927.75
2023-04-07T19:02:44.757Z,98939.09
2023-04-07T19:05:14.159Z,98936.94
2023-04-07T19:07:41.764Z,98940.34
2023-04-07T19:10:09.556Z,98949.16
2023-04-07T19:12:37.048Z,98948.94
2023-04-07T19:15:05.116Z,98950.09
2023-04-07T19:17:33.508Z,98950.94
2023-04-07T19:20:02.325Z,98962.19
2023-04-07T19:22:29.796Z,98961.19
2023-04-07T19:24:56.942Z,98967.00
2023-04-07T19:27:27.185Z,98955.84
2023-04-07T19:29:55.723Z,98970.06
2023-04-07T19:32:23.378Z,98969.88
2023-04-07T19:34:50.509Z,98962.69
2023-04-07T19:37:18.173Z,98977.69
2023-04-07T19:39:59.691Z,98979.38
2023-04-07T19:42:30.665Z,98981.09
2023-04-07T19:45:00.236Z,98985.84
2023-04-07T19:47:27.881Z,98985.72
2023-04-07T19:49:55.343Z,98979.44
2023-04-07T19:52:22.780Z,98985.41
2023-04-07T19:54:49.959Z,98993.53
2023-04-07T19:57:17.545Z,98988.97
2023-04-07T19:59:44.685Z,98996.06
2023-04-07T20:02:11.943Z,98997.34
2023-04-07T20:04:39.483Z,98997.13
2023-04-07T20:07:08.551Z,98998.72
2023-04-07T20:09:37.458Z,98997.41
2023-04-07T20:12:04.726Z,98995.47
2023-04-07T20:14:31.977Z,99006.59
2023-04-07T20:16:59.362Z,99009.97
2023-04-07T20:19:26.688Z,98999.84
2023-04-07T20:21:54.920Z,99009.22
2023-04-07T20:24:22.082Z,99010.19
2023-04-07T20:26:49.968Z,99021.44
2023-04-07T20:29:17.959Z,99014.97
2023-04-07T20:31:45.926Z,99006.09
2023-04-07T20:34:13.354Z,99016.31
2023-04-07T20:36:41.499Z,99017.16
2023-04-07T20:39:08.781Z,99017.00
2023-04-07T20:41:36.419Z,99016.06
2023-04-07T20:44:04.316Z,99017.66
2023-04-07T20:46:33.724Z,99018.50
2023-04-07T20:49:01.760Z,99019.56
2023-04-07T20:51:29.399Z,99019.00
2023-04-07T20:53:59.304Z,99018.25
2023-04-07T20:56:26.906Z,99019.47
2023-04-07T20:58:54.867Z,99024.56
2023-04-07T21:01:22.283Z,99026.63
2023-04-07T21:03:54.860Z,99023.63
2023-04-07T21:06:47.567Z,99028.88
2023-04-07T21:09:14.840Z,99031.59
2023-04-07T21:11:42.726Z,99041.88
2023-04-07T21:14:09.994Z,99032.94
2023-04-07T21:16:37.123Z,99038.66
2023-04-07T21:19:06.221Z,99043.13
2023-04-07T21:21:33.461Z,99046.44
2023-04-07T21:24:00.749Z,99041.00
2023-04-07T21:26:28.117Z,99038.63
2023-04-07T21:28:55.670Z,99041.84
2023-04-07T21:31:24.544Z,99045.13
2023-04-07T21:33:54.820Z,99043.03
2023-04-07T21:36:21.906Z,99042.63
2023-04-07T21:38:52.060Z,99046.53
2023-04-07T21:41:19.188Z,99044.56
2023-04-07T21:43:46.721Z,99041.38
2023-04-07T21:46:14.381Z,99038.66
2023-04-07T21:48:42.925Z,99030.56
2023-04-07T21:51:11.190Z,99034.69
2023-04-07T21:53:38.490Z,99033.09
2023-04-07T21:56:09.191Z,99038.34
2023-04-07T21:58:37.311Z,99041.88
2023-04-07T22:01:04.833Z,99038.97
2023-04-07T22:03:32.203Z,99039.88
2023-04-07T22:06:01.219Z,99034.13
2023-04-07T22:08:28.609Z,99046.63
2023-04-07T22:10:55.990Z,99039.00
2023-04-07T22:13:24.228Z,99044.31
2023-04-07T22:15:51.524Z,99042.47
2023-04-07T22:18:20.835Z,99049.66
2023-04-07T22:20:49.466Z,99043.72
2023-04-07T22:23:16.951Z,99044.25
2023-04-07T22:25:44.075Z,99047.78
2023-04-07T22:28:11.625Z,99050.56
2023-04-07T22:30:39.084Z,99046.69
2023-04-07T22:33:07.198Z,99049.41
2023-04-07T22:35:34.508Z,99046.50
2023-04-07T22:38:01.760Z,99045.25
2023-04-07T22:40:29.203Z,99042.81
2023-04-07T22:42:56.405Z,99048.38
2023-04-07T22:45:23.673Z,99042.56
2023-04-07T22:47:51.515Z,99043.56
2023-04-07T22:50:19.448Z,99048.94
2023-04-07T22:52:47.191Z,99045.00
2023-04-07T22:55:14.391Z,99042.78
2023-04-07T22:57:41.527Z,99047.09
2023-04-07T23:00:10.737Z,99048.63
2023-04-07T23:02:38.949Z,99050.13
2023-04-07T23:05:10.743Z,99039.84
2023-04-07T23:07:38.858Z,99047.78
2023-04-07T23:10:08.502Z,99045.66
2023-04-07T23:12:36.230Z,99049.25
2023-04-07T23:15:04.128Z,99066.13
2023-04-07T23:17:31.508Z,99058.56
2023-04-07T23:19:59.482Z,99061.19
2023-04-07T23:22:27.056Z,99066.66
2023-04-07T23:24:54.873Z,99065.16
2023-04-07T23:27:22.778Z,99061.97
2023-04-07T23:29:51.476Z,99070.78
2023-04-07T23:32:18.571Z,99076.09
2023-04-07T23:34:45.702Z,99071.88
2023-04-07T23:37:12.773Z,99073.66
2023-04-07T23:39:39.937Z,99082.38
2023-04-07T23:42:07.513Z,99081.84
2023-04-07T23:44:34.725Z,99074.75
2023-04-07T23:47:02.438Z,99082.78
2023-04-07T23:49:30.211Z,99079.16
2023-04-07T23:51:57.705Z,99070.47
2023-04-07T23:54:24.895Z,99069.06
2023-04-07T23:56:52.507Z,99074.34
2023-04-07T23:59:19.687Z,99067.66
